Time;durP1;ratioP1;P1;durP2;ratioP2;P2;SDS_P1;SDS_P2;PMS_P1;PMS_P2;Temp;Humidity;BMP_temperature;BMP_pressure;BME280_temperature;BME280_humidity;BME280_pressure;Samples;Min_cycle;Max_cycle;Signal;HPM_P1;HPM_P2
2021/12/08 00:00:30;;;;;;;67.10;31.70;;;;;;;-1.40;100.00;98620.68;102989;1310;60768;-78
2021/12/08 00:03:06;;;;;;;59.90;29.80;;;;;;;-1.37;99.98;98623.23;103092;1310;75083;-77
2021/12/08 00:05:33;;;;;;;58.90;29.50;;;;;;;-1.37;99.97;98616.61;103071;1310;69376;-77
2021/12/08 00:08:00;;;;;;;59.50;28.40;;;;;;;-1.40;99.90;98621.74;103405;1310;74412;-75
2021/12/08 00:15:31;;;;;;;;;;;;;;;-1.47;99.92;98611.11;105281;1310;72832;-76
2021/12/08 00:17:59;;;;;;;55.60;28.30;;;;;;;-1.48;99.92;98611.13;105288;1310;69559;-78
2021/12/08 00:20:30;;;;;;;57.40;26.80;;;;;;;-1.50;99.85;98606.65;103339;1311;73361;-78
2021/12/08 00:22:58;;;;;;;52.70;27.40;;;;;;;-1.50;99.93;98604.05;102546;1311;61105;-78
2021/12/08 00:25:25;;;;;;;60.10;28.60;;;;;;;-1.51;99.93;98607.21;102689;1311;61292;-77
2021/12/08 00:27:51;;;;;;;63.70;33.80;;;;;;;-1.51;99.97;98616.09;102617;1310;75598;-78
2021/12/08 00:30:19;;;;;;;66.80;32.20;;;;;;;-1.49;100.00;98617.61;102627;1310;69979;-79
2021/12/08 00:32:46;;;;;;;64.80;32.10;;;;;;;-1.46;100.00;98619.29;102706;1311;73323;-79
2021/12/08 00:35:14;;;;;;;70.00;31.90;;;;;;;-1.50;100.00;98611.55;102408;1310;60554;-77
2021/12/08 00:37:41;;;;;;;67.80;32.40;;;;;;;-1.54;100.00;98610.60;102161;1313;60947;-78
2021/12/08 00:40:11;;;;;;;61.10;32.30;;;;;;;-1.55;100.00;98610.63;102456;1310;75670;-77
2021/12/08 00:42:37;;;;;;;64.60;31.30;;;;;;;-1.59;100.00;98619.94;102446;1311;70669;-76
2021/12/08 00:45:06;;;;;;;60.90;31.70;;;;;;;-1.62;100.00;98614.79;102378;1311;74267;-78
2021/12/08 00:47:33;;;;;;;63.40;32.80;;;;;;;-1.64;100.00;98615.02;102410;1310;60486;-77
2021/12/08 00:50:00;;;;;;;63.40;32.40;;;;;;;-1.64;100.00;98612.73;102416;1310;60902;-77
2021/12/08 00:52:29;;;;;;;62.40;32.40;;;;;;;-1.63;100.00;98613.77;102422;1310;75727;-78
2021/12/08 00:54:56;;;;;;;54.90;28.70;;;;;;;-1.64;100.00;98615.19;102444;1310;70370;-77
2021/12/08 00:57:23;;;;;;;67.20;33.50;;;;;;;-1.66;100.00;98614.52;102461;1311;74809;-79
2021/12/08 00:59:49;;;;;;;51.70;26.60;;;;;;;-1.67;100.00;98621.20;102463;1310;60511;-77
2021/12/08 01:02:17;;;;;;;60.50;29.10;;;;;;;-1.70;100.00;98622.29;102408;1311;62167;-80
2021/12/08 01:04:44;;;;;;;53.00;27.90;;;;;;;-1.73;100.00;98627.76;102473;1311;75455;-78
2021/12/08 01:07:10;;;;;;;57.00;28.90;;;;;;;-1.74;100.00;98635.27;102502;1311;70688;-75
2021/12/08 01:09:37;;;;;;;51.80;25.40;;;;;;;-1.73;100.00;98635.77;102608;1311;73297;-78
2021/12/08 01:12:05;;;;;;;51.90;26.10;;;;;;;-1.72;100.00;98641.85;102603;1310;60543;-79
2021/12/08 01:14:34;;;;;;;48.10;24.30;;;;;;;-1.72;100.00;98641.15;103773;1310;61115;-80
2021/12/08 01:17:04;;;;;;;51.40;26.10;;;;;;;-1.70;100.00;98639.36;103911;1311;74708;-78
2021/12/08 01:19:31;;;;;;;;;;;;;;;-1.68;100.00;98639.48;103311;1311;1002662;-76
2021/12/08 01:21:58;;;;;;;63.00;36.00;;;;;;;-1.66;100.00;98640.66;102675;1311;60481;-79
2021/12/08 01:24:25;;;;;;;53.30;30.00;;;;;;;-1.60;100.00;98641.21;102431;1311;60545;-77
2021/12/08 01:26:54;;;;;;;69.20;43.30;;;;;;;-1.57;100.00;98640.44;102483;1310;61448;-78
2021/12/08 01:29:21;;;;;;;96.60;47.20;;;;;;;-1.53;100.00;98637.56;102443;1310;75800;-78
2021/12/08 01:31:48;;;;;;;53.40;28.50;;;;;;;-1.53;100.00;98638.25;101743;1310;1003191;-77
2021/12/08 01:34:14;;;;;;;94.90;43.10;;;;;;;-1.54;99.99;98636.17;102428;1310;74580;-77
2021/12/08 01:36:42;;;;;;;51.50;26.50;;;;;;;-1.56;99.98;98629.61;102350;1313;60503;-77
2021/12/08 01:39:10;;;;;;;70.50;32.90;;;;;;;-1.58;99.95;98614.16;102449;1314;60966;-77
2021/12/08 01:41:37;;;;;;;160.20;74.30;;;;;;;-1.60;99.93;98591.74;102047;1314;73820;-77
2021/12/08 01:46:52;;;;;;;46.90;24.70;;;;;;;-1.60;99.92;98568.41;102089;1310;73887;-78
2021/12/08 01:49:20;;;;;;;55.00;28.80;;;;;;;-1.62;99.87;98566.38;102358;1310;60510;-75
2021/12/08 01:51:46;;;;;;;48.10;27.00;;;;;;;-1.66;99.80;98577.79;102439;1313;60842;-78
2021/12/08 01:54:13;;;;;;;54.40;27.30;;;;;;;-1.67;99.88;98582.52;102448;1310;73903;-78
2021/12/08 01:56:40;;;;;;;50.90;26.00;;;;;;;-1.67;99.89;98579.90;102435;1314;69555;-78
2021/12/08 01:59:09;;;;;;;46.20;22.40;;;;;;;-1.65;99.96;98581.92;102375;1310;73285;-76
2021/12/08 02:01:39;;;;;;;46.80;22.50;;;;;;;-1.62;99.99;98588.15;102067;1313;60528;-75
2021/12/08 02:04:06;;;;;;;;;;;;;;;-1.63;99.79;98593.05;102408;1311;60583;-78
2021/12/08 02:06:40;;;;;;;48.10;24.40;;;;;;;-1.65;99.77;98590.29;102270;1310;74471;-78
2021/12/08 02:09:11;;;;;;;51.20;26.20;;;;;;;-1.66;99.69;98587.20;102473;1311;67676;-77
2021/12/08 02:11:39;;;;;;;50.00;23.50;;;;;;;-1.65;99.87;98582.48;102411;1310;74603;-78
2021/12/08 02:14:07;;;;;;;41.30;20.80;;;;;;;-1.65;99.83;98577.58;102615;1310;60444;-79
2021/12/08 02:16:34;;;;;;;46.60;23.60;;;;;;;-1.71;99.51;98569.37;102394;1311;61434;-77
2021/12/08 02:19:01;;;;;;;43.70;21.70;;;;;;;-1.75;99.64;98563.91;102607;1311;74672;-78
2021/12/08 02:21:35;;;;;;;41.30;21.90;;;;;;;-1.78;99.61;98555.95;102640;1311;70296;-78
2021/12/08 02:24:05;;;;;;;46.60;23.30;;;;;;;-1.82;99.70;98543.67;102502;1310;74299;-77
2021/12/08 02:26:33;;;;;;;48.90;24.20;;;;;;;-1.84;99.60;98547.58;102587;1310;60574;-79
2021/12/08 02:29:05;;;;;;;47.90;22.50;;;;;;;-1.87;99.63;98546.77;102475;1309;61066;-78
2021/12/08 02:31:45;;;;;;;41.40;20.30;;;;;;;-1.90;99.61;98541.45;102422;1310;76100;-78
2021/12/08 02:48:00;;;;;;;49.80;21.70;;;;;;;-1.97;99.75;98548.75;102413;1310;69491;-76
2021/12/08 02:50:32;;;;;;;41.60;22.00;;;;;;;-1.96;99.75;98542.64;102446;1310;74457;-78
2021/12/08 02:53:00;;;;;;;47.80;23.20;;;;;;;-1.94;99.77;98543.29;102400;1310;60490;-78
2021/12/08 02:55:29;;;;;;;50.80;24.20;;;;;;;-1.93;99.81;98544.13;102462;1310;61208;-77
2021/12/08 02:57:57;;;;;;;51.60;22.60;;;;;;;-1.92;99.66;98539.23;102394;1310;75550;-78
2021/12/08 03:00:47;;;;;;;50.40;24.20;;;;;;;-1.90;99.81;98543.00;101999;1311;70407;-77
2021/12/08 03:03:14;;;;;;;;;;;;;;;-1.86;99.65;98535.96;102476;1310;73709;-76
2021/12/08 03:05:41;;;;;;;46.90;22.30;;;;;;;-1.87;99.55;98535.98;102389;1310;60520;-77
2021/12/08 03:08:08;;;;;;;48.80;24.00;;;;;;;-1.89;99.63;98528.01;102405;1311;61948;-77
2021/12/08 03:10:41;;;;;;;47.00;22.90;;;;;;;-1.89;99.61;98521.07;102425;1310;75573;-77
2021/12/08 03:13:08;;;;;;;45.30;21.50;;;;;;;-1.93;99.39;98521.33;102502;1310;70284;-78
2021/12/08 03:15:37;;;;;;;43.10;21.00;;;;;;;-1.98;99.20;98524.92;102392;1311;74464;-78
2021/12/08 03:18:03;;;;;;;43.40;21.00;;;;;;;-2.02;99.15;98519.29;102277;1314;60780;-77
2021/12/08 03:20:45;;;;;;;41.50;20.30;;;;;;;-2.03;99.12;98514.25;101990;1314;62335;-77
2021/12/08 03:23:20;;;;;;;37.20;19.50;;;;;;;-2.05;99.21;98508.73;102411;1311;74700;-76
2021/12/08 03:25:55;;;;;;;41.90;19.40;;;;;;;-2.06;98.97;98503.02;102394;1310;69325;-77
2021/12/08 03:28:27;;;;;;;38.70;19.50;;;;;;;-2.10;98.97;98503.81;101978;1310;74324;-77
2021/12/08 03:31:12;;;;;;;42.80;18.60;;;;;;;-2.14;98.97;98495.20;102511;1310;60685;-77
2021/12/08 03:33:40;;;;;;;41.00;17.20;;;;;;;-2.18;98.91;98496.52;102497;1310;60995;-78
2021/12/08 03:36:06;;;;;;;44.50;19.10;;;;;;;-2.22;98.90;98496.27;102426;1310;74589;-79
2021/12/08 03:38:34;;;;;;;41.40;20.10;;;;;;;-2.26;98.96;98490.60;102401;1310;69242;-78
2021/12/08 03:41:03;;;;;;;44.40;20.70;;;;;;;-2.27;98.99;98493.23;102443;1314;74235;-77
2021/12/08 03:43:31;;;;;;;40.50;18.90;;;;;;;-2.28;99.06;98485.79;102478;1310;60653;-78
2021/12/08 03:45:58;;;;;;;44.50;20.60;;;;;;;-2.30;99.16;98478.70;102387;1311;61167;-77
2021/12/08 03:48:39;;;;;;;43.40;19.00;;;;;;;-2.33;99.21;98475.98;102399;1310;74457;-77
2021/12/08 03:51:05;;;;;;;44.20;19.60;;;;;;;-2.34;99.37;98473.05;102419;1311;69358;-76
2021/12/08 03:53:32;;;;;;;43.90;20.90;;;;;;;-2.33;99.47;98474.76;102107;1311;72114;-78
2021/12/08 03:55:59;;;;;;;37.90;20.00;;;;;;;-2.32;99.37;98476.14;102426;1310;60535;-77
2021/12/08 03:58:26;;;;;;;42.60;20.00;;;;;;;-2.29;99.50;98477.45;102445;1310;60530;-77
2021/12/08 04:00:55;;;;;;;41.40;19.50;;;;;;;-2.26;99.45;98481.38;102470;1310;74472;-78
2021/12/08 04:03:22;;;;;;;41.20;18.10;;;;;;;-2.23;99.27;98476.27;102428;1310;70734;-77
2021/12/08 04:05:55;;;;;;;40.80;18.60;;;;;;;-2.20;99.24;98477.23;102472;1311;74621;-77
2021/12/08 04:08:30;;;;;;;37.50;17.40;;;;;;;-2.16;99.13;98478.38;101995;1311;60578;-78
2021/12/08 04:11:00;;;;;;;37.30;18.20;;;;;;;-2.17;99.00;98464.81;102526;1310;60662;-77
2021/12/08 04:13:30;;;;;;;;;;;;;;;-2.17;98.89;98470.20;102404;1311;75657;-77
2021/12/08 04:15:58;;;;;;;37.40;17.70;;;;;;;-2.15;98.94;98477.82;102449;1311;68734;-76
2021/12/08 04:18:26;;;;;;;42.50;20.70;;;;;;;-2.13;98.97;98477.95;102533;1311;73347;-77
2021/12/08 04:20:57;;;;;;;49.10;21.40;;;;;;;-2.11;99.01;98479.62;102361;1311;60523;-78
2021/12/08 04:23:28;;;;;;;42.20;20.10;;;;;;;-2.11;98.91;98484.67;102423;1311;60837;-77
2021/12/08 04:25:57;;;;;;;43.70;20.40;;;;;;;-2.12;99.01;98485.73;102240;1316;74511;-77
2021/12/08 04:28:29;;;;;;;47.20;20.60;;;;;;;-2.11;98.90;98494.42;102470;1311;70060;-76
2021/12/08 04:31:10;;;;;;;40.60;19.50;;;;;;;-2.10;98.97;98503.09;102417;1310;73373;-78
2021/12/08 04:33:38;;;;;;;42.00;21.00;;;;;;;-2.11;98.95;98506.44;102521;1311;60615;-77
2021/12/08 04:36:09;;;;;;;41.50;19.70;;;;;;;-2.12;98.96;98508.54;102425;1310;61327;-78
2021/12/08 04:38:43;;;;;;;45.20;21.30;;;;;;;-2.12;98.88;98503.48;102490;1310;72434;-78
2021/12/08 04:41:18;;;;;;;40.90;19.70;;;;;;;-2.12;98.77;98500.55;102255;1314;228589;-77
2021/12/08 04:44:09;;;;;;;42.20;20.70;;;;;;;-2.14;98.71;98497.11;102473;1310;74679;-78
2021/12/08 04:52:07;;;;;;;40.20;19.60;;;;;;;-2.16;98.94;98489.14;102203;1314;73583;-78
2021/12/08 05:06:06;;;;;;;47.00;21.60;;;;;;;-2.16;99.10;98473.31;102429;1310;74096;-77
2021/12/08 05:08:43;;;;;;;46.00;21.60;;;;;;;-2.16;99.09;98475.07;102450;1310;69561;-77
2021/12/08 05:11:29;;;;;;;50.80;22.20;;;;;;;-2.16;99.08;98469.66;102392;1311;72856;-78
2021/12/08 05:14:14;;;;;;;42.00;19.80;;;;;;;-2.16;99.10;98462.70;102443;1310;60616;-76
2021/12/08 05:16:44;;;;;;;43.80;19.40;;;;;;;-2.17;98.98;98457.70;102518;1311;60642;-79
2021/12/08 05:19:14;;;;;;;46.10;21.70;;;;;;;-2.18;99.03;98451.45;102389;1310;74679;-77
2021/12/08 05:21:49;;;;;;;45.90;21.20;;;;;;;-2.17;98.95;98445.52;102416;1310;70025;-78
2021/12/08 05:24:28;;;;;;;41.40;20.60;;;;;;;-2.18;98.97;98452.69;102425;1314;73069;-78
2021/12/08 05:27:02;;;;;;;44.10;19.60;;;;;;;-2.20;98.72;98451.16;102500;1310;60605;-78
2021/12/08 05:29:53;;;;;;;49.00;21.20;;;;;;;-2.22;98.68;98453.27;102479;1311;60477;-78
2021/12/08 05:32:20;;;;;;;43.20;19.80;;;;;;;-2.22;98.90;98454.85;102403;1311;74303;-78
2021/12/08 05:34:47;;;;;;;42.90;22.30;;;;;;;-2.22;98.87;98449.95;102395;1313;67740;-77
2021/12/08 05:37:16;;;;;;;44.00;22.40;;;;;;;-2.22;98.81;98454.50;102377;1313;72394;-79
2021/12/08 05:39:43;;;;;;;43.30;19.10;;;;;;;-2.23;98.86;98455.56;102475;1310;60609;-77
2021/12/08 05:42:15;;;;;;;42.10;19.20;;;;;;;-2.23;98.78;98461.13;102450;1310;60884;-78
2021/12/08 05:44:42;;;;;;;34.40;18.60;;;;;;;-2.25;98.73;98465.70;102436;1310;75657;-78
2021/12/08 05:47:15;;;;;;;41.00;19.70;;;;;;;-2.26;98.63;98460.84;102117;1313;69349;-77
2021/12/08 05:49:42;;;;;;;39.70;18.80;;;;;;;-2.28;98.72;98454.98;102533;1310;74427;-78
2021/12/08 05:52:09;;;;;;;40.50;18.20;;;;;;;-2.29;98.82;98451.54;102491;1311;60505;-78
2021/12/08 05:54:39;;;;;;;40.40;18.60;;;;;;;-2.33;98.74;98444.50;102559;1310;60956;-77
2021/12/08 05:57:08;;;;;;;;;;;;;;;-2.34;98.70;98443.13;102626;1314;75616;-78
2021/12/08 05:59:35;;;;;;;41.70;18.90;;;;;;;-2.37;98.68;98432.94;102638;1311;69562;-78
2021/12/08 06:02:13;;;;;;;49.30;20.10;;;;;;;-2.38;98.92;98431.04;102682;1311;72879;-78
2021/12/08 06:04:41;;;;;;;39.30;19.40;;;;;;;-2.38;98.98;98434.52;102678;1311;60617;-77
2021/12/08 06:07:09;;;;;;;42.10;18.50;;;;;;;-2.38;98.93;98432.95;102729;1310;60827;-76
2021/12/08 06:09:38;;;;;;;36.40;18.30;;;;;;;-2.38;98.91;98423.73;102705;1311;74463;-76
2021/12/08 06:12:08;;;;;;;41.80;19.10;;;;;;;-2.38;98.92;98425.83;102675;1313;69926;-76
2021/12/08 06:14:36;;;;;;;40.00;18.70;;;;;;;-2.36;98.87;98432.38;102647;1313;73489;-76
2021/12/08 06:17:11;;;;;;;43.00;20.50;;;;;;;-2.34;98.86;98437.73;102659;1310;60616;-78
2021/12/08 06:19:40;;;;;;;39.60;18.00;;;;;;;-2.35;98.77;98434.63;102769;1311;60904;-78
2021/12/08 06:22:09;;;;;;;40.80;20.20;;;;;;;-2.37;98.84;98432.77;102915;1310;74912;-77
2021/12/08 06:24:35;;;;;;;43.00;19.40;;;;;;;-2.38;98.78;98430.00;102714;1311;70543;-77
2021/12/08 06:27:02;;;;;;;38.30;18.40;;;;;;;-2.39;98.71;98423.42;103364;1310;73648;-79
2021/12/08 06:29:29;;;;;;;35.90;17.30;;;;;;;-2.41;98.66;98421.92;103361;1314;61396;-77
2021/12/08 06:32:00;;;;;;;40.20;19.60;;;;;;;-2.43;98.78;98409.92;103404;1310;61331;-77
2021/12/08 06:34:29;;;;;;;52.90;25.60;;;;;;;-2.42;98.89;98408.71;103138;1313;74308;-78
2021/12/08 06:37:06;;;;;;;44.00;19.40;;;;;;;-2.41;98.87;98408.33;104562;1313;69549;-75
2021/12/08 06:39:40;;;;;;;42.40;19.60;;;;;;;-2.38;98.85;98413.66;105194;1313;72262;-75
2021/12/08 06:42:14;;;;;;;37.50;18.20;;;;;;;-2.36;98.77;98414.13;105744;1309;59393;-75
2021/12/08 06:44:46;;;;;;;38.30;19.10;;;;;;;-2.34;98.66;98414.41;105442;1310;60824;-78
2021/12/08 06:47:17;;;;;;;45.10;20.10;;;;;;;-2.36;98.37;98413.43;104788;1310;73376;-77
2021/12/08 06:49:46;;;;;;;38.80;19.20;;;;;;;-2.38;98.50;98409.66;102240;1314;69307;-77
2021/12/08 06:52:18;;;;;;;42.20;21.30;;;;;;;-2.38;98.52;98417.81;102618;1311;73629;-77
2021/12/08 06:54:53;;;;;;;42.40;19.60;;;;;;;-2.40;98.57;98415.08;102592;1310;61505;-76
2021/12/08 06:57:28;;;;;;;38.60;19.20;;;;;;;-2.38;98.49;98413.84;102592;1311;61855;-78
2021/12/08 07:00:04;;;;;;;38.20;19.20;;;;;;;-2.38;98.45;98412.42;102547;1310;75329;-78
2021/12/08 07:05:28;;;;;;;43.70;21.30;;;;;;;-2.35;98.29;98412.02;102444;1314;71668;-77
2021/12/08 07:08:04;;;;;;;44.00;21.70;;;;;;;-2.35;98.27;98417.39;102723;1310;61326;-78
2021/12/08 07:10:37;;;;;;;37.90;19.80;;;;;;;-2.34;98.31;98420.17;102521;1310;62922;-76
2021/12/08 07:13:12;;;;;;;39.70;19.60;;;;;;;-2.33;98.32;98419.96;102290;1311;74543;-77
2021/12/08 07:15:57;;;;;;;36.10;17.10;;;;;;;-2.32;98.17;98417.50;102475;1310;69735;-78
2021/12/08 07:18:37;;;;;;;40.50;18.20;;;;;;;-2.32;97.78;98418.90;102488;1310;71381;-77
2021/12/08 07:21:05;;;;;;;39.80;21.50;;;;;;;-2.30;97.86;98417.98;102546;1311;61457;-76
2021/12/08 07:23:37;;;;;;;38.70;19.80;;;;;;;-2.27;97.86;98418.60;102680;1311;62119;-77
2021/12/08 07:26:10;;;;;;;51.40;26.20;;;;;;;-2.20;98.04;98412.34;102423;1316;75233;-78
2021/12/08 07:28:40;;;;;;;42.60;19.40;;;;;;;-2.15;97.89;98413.63;102593;1310;70329;-77
2021/12/08 07:31:16;;;;;;;41.20;19.50;;;;;;;-2.15;97.74;98415.17;102583;1310;72571;-78
2021/12/08 07:33:43;;;;;;;43.70;22.60;;;;;;;-2.14;97.55;98422.99;102372;1311;61292;-77
2021/12/08 07:36:15;;;;;;;52.20;25.20;;;;;;;-2.13;97.65;98420.86;102427;1311;61919;-76
2021/12/08 07:38:44;;;;;;;38.60;20.40;;;;;;;-2.07;97.67;98419.50;102415;1316;74750;-77
2021/12/08 07:41:19;;;;;;;46.30;21.30;;;;;;;-2.02;97.64;98423.55;102504;1311;70453;-78
2021/12/08 07:43:52;;;;;;;39.90;20.20;;;;;;;-1.96;97.47;98423.04;102401;1311;73248;-76
2021/12/08 07:46:25;;;;;;;45.80;24.00;;;;;;;-1.94;97.35;98427.88;102414;1310;61311;-77
2021/12/08 07:49:00;;;;;;;36.10;18.60;;;;;;;-1.90;97.39;98429.15;102184;1316;60384;-77
2021/12/08 07:51:31;;;;;;;34.50;19.80;;;;;;;-1.89;96.94;98431.92;102527;1311;75971;-77
2021/12/08 07:53:58;;;;;;;36.80;18.30;;;;;;;-1.88;97.01;98439.23;102475;1310;70394;-77
2021/12/08 07:56:28;;;;;;;35.90;18.40;;;;;;;-1.86;96.70;98438.98;102373;1310;73188;-78
2021/12/08 07:59:03;;;;;;;34.20;17.40;;;;;;;-1.86;96.56;98444.54;101981;1316;61515;-77
2021/12/08 08:01:36;;;;;;;37.80;19.80;;;;;;;-1.84;96.53;98444.16;102469;1311;61504;-77
2021/12/08 08:04:06;;;;;;;33.90;18.70;;;;;;;-1.78;96.56;98435.63;102527;1310;75192;-77
2021/12/08 08:06:36;;;;;;;32.30;17.80;;;;;;;-1.73;96.36;98435.34;102028;1317;68716;-77
2021/12/08 08:09:08;;;;;;;33.50;18.30;;;;;;;-1.71;95.99;98433.02;102575;1311;71683;-77
2021/12/08 08:11:41;;;;;;;40.60;19.90;;;;;;;-1.70;96.00;98429.52;102445;1311;61458;-78
2021/12/08 08:14:10;;;;;;;38.00;19.40;;;;;;;-1.70;96.01;98428.80;102267;1316;61240;-80
2021/12/08 08:16:39;;;;;;;36.30;23.00;;;;;;;-1.68;95.72;98426.50;102714;1311;75216;-77
2021/12/08 08:19:12;;;;;;;33.60;18.60;;;;;;;-1.65;95.68;98422.05;102598;1314;70476;-79
2021/12/08 08:21:45;;;;;;;33.80;18.20;;;;;;;-1.63;94.92;98428.61;102465;1311;73617;-77
2021/12/08 08:24:12;;;;;;;32.20;17.20;;;;;;;-1.60;95.14;98426.27;102401;1310;61295;-80
2021/12/08 08:26:41;;;;;;;27.40;15.70;;;;;;;-1.59;94.78;98424.66;102480;1311;61587;-78
2021/12/08 08:29:09;;;;;;;31.20;17.00;;;;;;;-1.61;94.40;98424.03;102052;1310;76122;-76
2021/12/08 08:31:56;;;;;;;33.10;19.10;;;;;;;-1.60;94.50;98426.25;102497;1314;69341;-77
2021/12/08 08:34:23;;;;;;;28.90;16.50;;;;;;;-1.58;94.57;98427.09;102556;1311;72788;-77
2021/12/08 08:36:50;;;;;;;30.60;16.40;;;;;;;-1.55;94.11;98428.05;102448;1311;61347;-78
2021/12/08 08:39:23;;;;;;;30.90;16.50;;;;;;;-1.54;94.07;98422.81;102472;1310;62817;-76
2021/12/08 08:42:16;;;;;;;28.50;15.90;;;;;;;-1.58;93.69;98412.09;102453;1311;75001;-78
2021/12/08 08:44:53;;;;;;;28.40;16.30;;;;;;;-1.57;94.08;98409.11;102459;1311;70432;-77
2021/12/08 08:47:33;;;;;;;30.00;16.00;;;;;;;-1.49;93.97;98399.66;102336;1314;73469;-78
2021/12/08 08:50:00;;;;;;;32.80;17.80;;;;;;;-1.45;93.76;98402.17;102477;1310;61330;-76
2021/12/08 08:52:41;;;;;;;28.60;15.40;;;;;;;-1.42;93.58;98408.70;102717;1311;61302;-77
2021/12/08 08:55:18;;;;;;;25.90;14.70;;;;;;;-1.44;92.94;98414.50;102444;1311;75748;-77
2021/12/08 08:57:45;;;;;;;28.30;16.50;;;;;;;-1.47;93.16;98417.56;102462;1313;69523;-76
2021/12/08 09:00:36;;;;;;;28.90;17.20;;;;;;;-1.47;92.92;98416.33;102487;1311;74131;-77
2021/12/08 09:03:08;;;;;;;31.50;17.40;;;;;;;-1.44;93.05;98415.05;102240;1314;61338;-76
2021/12/08 09:05:51;;;;;;;28.10;14.70;;;;;;;-1.40;92.88;98411.42;102618;1310;61277;-77
2021/12/08 09:08:20;;;;;;;27.90;16.10;;;;;;;-1.44;92.56;98412.06;102476;1314;75275;-74
2021/12/08 09:10:54;;;;;;;32.20;18.60;;;;;;;-1.48;92.79;98416.36;102472;1310;68883;-79
2021/12/08 09:13:23;;;;;;;31.70;16.40;;;;;;;-1.47;92.59;98420.00;102460;1311;73873;-77
2021/12/08 09:15:55;;;;;;;29.10;16.80;;;;;;;-1.48;92.63;98419.69;102439;1311;61441;-77
2021/12/08 09:18:30;;;;;;;32.00;17.20;;;;;;;-1.49;92.35;98426.16;102473;1311;61411;-77
2021/12/08 09:21:24;;;;;;;30.90;17.30;;;;;;;-1.48;92.19;98426.12;102412;1310;74364;-77
2021/12/08 09:24:02;;;;;;;28.80;16.00;;;;;;;-1.46;92.05;98428.00;102483;1311;70473;-75
2021/12/08 09:26:31;;;;;;;33.30;17.90;;;;;;;-1.49;91.81;98423.02;102514;1313;71780;-77
2021/12/08 09:29:20;;;;;;;32.00;17.90;;;;;;;-1.49;92.03;98421.09;102588;1310;61379;-78
2021/12/08 09:31:54;;;;;;;30.40;17.80;;;;;;;-1.47;92.16;98423.64;102496;1310;62271;-77
2021/12/08 09:34:30;;;;;;;27.90;17.40;;;;;;;-1.40;92.28;98422.60;102425;1311;75282;-79
2021/12/08 09:37:03;;;;;;;30.50;17.00;;;;;;;-1.37;91.55;98421.98;101966;1314;67723;-78
2021/12/08 09:39:38;;;;;;;33.70;18.30;;;;;;;-1.38;91.58;98416.42;102439;1311;74076;-79
2021/12/08 09:42:10;;;;;;;31.50;17.60;;;;;;;-1.31;92.12;98424.42;102492;1310;61480;-77
2021/12/08 09:44:44;;;;;;;33.60;20.10;;;;;;;-1.28;91.73;98417.38;102410;1314;61298;-77
2021/12/08 09:47:11;;;;;;;33.60;18.50;;;;;;;-1.24;91.96;98413.24;102421;1310;76184;-75
2021/12/08 09:49:39;;;;;;;29.10;16.80;;;;;;;-1.23;91.60;98415.85;102424;1310;69327;-75
2021/12/08 09:52:09;;;;;;;28.80;18.00;;;;;;;-1.30;91.08;98405.92;102498;1311;73221;-79
2021/12/08 09:54:38;;;;;;;29.50;18.00;;;;;;;-1.28;91.53;98403.80;102651;1310;61394;-79
2021/12/08 09:57:11;;;;;;;31.90;17.40;;;;;;;-1.19;91.87;98398.29;102873;1310;61282;-76
2021/12/08 09:59:45;;;;;;;31.20;18.70;;;;;;;-1.07;91.36;98405.95;102554;1313;75176;-76
2021/12/08 10:02:18;;;;;;;32.40;18.60;;;;;;;-0.98;91.64;98401.86;102262;1313;70320;-78
2021/12/08 10:04:45;;;;;;;32.90;19.40;;;;;;;-0.95;91.01;98406.98;102423;1313;74535;-77
2021/12/08 10:07:13;;;;;;;34.40;19.20;;;;;;;-0.93;91.03;98397.70;102381;1310;61360;-78
2021/12/08 10:09:40;;;;;;;30.10;17.10;;;;;;;-0.86;91.11;98390.33;102446;1314;62290;-77
2021/12/08 10:12:07;;;;;;;31.00;17.80;;;;;;;-0.78;90.63;98385.55;102519;1310;76155;-78
2021/12/08 10:14:34;;;;;;;32.20;18.40;;;;;;;-0.77;90.60;98388.49;102446;1310;69277;-78
2021/12/08 10:17:01;;;;;;;26.60;15.70;;;;;;;-0.73;90.70;98386.98;102769;1310;73146;-78
2021/12/08 10:19:28;;;;;;;30.10;16.80;;;;;;;-0.75;89.85;98379.01;102437;1314;61352;-77
2021/12/08 10:21:55;;;;;;;30.90;17.70;;;;;;;-0.86;89.67;98370.44;102414;1311;61304;-76
2021/12/08 10:24:24;;;;;;;29.30;17.50;;;;;;;-0.93;89.78;98368.58;102420;1310;74178;-78
2021/12/08 10:26:53;;;;;;;29.20;15.90;;;;;;;-0.92;90.36;98361.40;102056;1313;70441;-81
2021/12/08 10:29:25;;;;;;;29.80;17.50;;;;;;;-0.91;89.60;98364.85;102587;1314;72661;-76
2021/12/08 10:31:53;;;;;;;30.20;17.70;;;;;;;-0.93;89.92;98360.02;102455;1316;61332;-77
2021/12/08 10:34:25;;;;;;;27.90;18.00;;;;;;;-0.89;90.28;98358.34;102644;1311;62371;-78
2021/12/08 10:36:59;;;;;;;31.30;19.00;;;;;;;-0.84;89.93;98362.36;102547;1310;75459;-84
2021/12/08 10:39:31;;;;;;;29.20;17.70;;;;;;;-0.91;89.78;98367.46;102639;1314;70260;-79
2021/12/08 10:42:02;;;;;;;33.00;17.90;;;;;;;-0.97;89.86;98357.17;102573;1313;72612;-77
2021/12/08 10:44:44;;;;;;;31.40;19.00;;;;;;;-1.01;89.72;98356.27;102555;1313;61321;-81
2021/12/08 10:47:15;;;;;;;31.80;18.90;;;;;;;-1.10;89.95;98353.92;102648;1313;61295;-78
2021/12/08 10:55:00;;;;;;;31.50;19.50;;;;;;;-1.04;90.18;98345.05;102435;1311;72749;-80
2021/12/08 10:57:37;;;;;;;40.50;24.70;;;;;;;-1.06;90.22;98345.11;102607;1313;61295;-77
2021/12/08 11:00:18;;;;;;;34.00;19.30;;;;;;;-1.01;90.50;98336.74;102553;1311;61298;-77
2021/12/08 11:02:48;;;;;;;28.40;16.90;;;;;;;-0.93;90.51;98333.69;102765;1311;75208;-82
2021/12/08 11:05:23;;;;;;;29.80;16.60;;;;;;;-0.87;89.98;98325.33;102804;1311;70448;-81
2021/12/08 11:08:21;;;;;;;27.50;16.40;;;;;;;-0.91;89.33;98319.17;102642;1314;74470;-81
2021/12/08 11:10:48;;;;;;;30.00;17.70;;;;;;;-1.03;89.52;98316.59;101927;1322;61379;-85
2021/12/08 11:13:18;;;;;;;29.20;18.00;;;;;;;-1.08;89.72;98321.61;101824;1322;61481;-84
2021/12/08 11:15:45;;;;;;;;;;;;;;;-1.07;89.88;98315.83;101923;1319;76895;-76
2021/12/08 11:18:13;;;;;;;26.80;16.60;;;;;;;-1.09;89.74;98315.55;101813;1319;70887;-77
2021/12/08 11:20:48;;;;;;;28.10;16.00;;;;;;;-1.14;89.70;98311.33;101858;1319;73409;-77
2021/12/08 11:23:28;;;;;;;26.10;17.00;;;;;;;-1.20;89.86;98313.44;101782;1322;61317;-75
2021/12/08 11:25:57;;;;;;;32.00;20.30;;;;;;;-1.24;90.03;98317.73;101795;1324;61398;-76
2021/12/08 11:28:29;;;;;;;28.80;16.60;;;;;;;-1.21;90.61;98312.09;101811;1322;75235;-76
2021/12/08 11:31:10;;;;;;;27.20;16.40;;;;;;;-1.16;90.25;98308.97;101971;1319;69418;-76
2021/12/08 11:33:41;;;;;;;29.90;16.70;;;;;;;-1.18;90.29;98305.88;101916;1320;74654;-75
2021/12/08 11:36:19;;;;;;;30.30;19.00;;;;;;;-1.16;90.00;98301.30;101462;1325;61297;-76
2021/12/08 11:38:48;;;;;;;25.50;17.20;;;;;;;-1.18;90.31;98299.77;101692;1324;61356;-74
2021/12/08 11:41:29;;;;;;;26.20;15.40;;;;;;;-1.17;90.29;98303.07;101884;1320;76732;-74
2021/12/08 11:43:58;;;;;;;31.60;19.40;;;;;;;-1.18;90.44;98303.28;101879;1323;70865;-74
2021/12/08 11:46:26;;;;;;;28.10;16.40;;;;;;;-1.13;90.74;98301.90;102008;1319;73290;-74
2021/12/08 11:49:04;;;;;;;23.40;16.40;;;;;;;-1.08;90.53;98306.30;102391;1311;61248;-76
2021/12/08 11:51:52;;;;;;;27.10;15.70;;;;;;;-1.12;90.21;98300.48;102988;1313;61219;-76
2021/12/08 11:54:25;;;;;;;24.10;15.80;;;;;;;-1.14;90.60;98299.48;103600;1310;75822;-76
2021/12/08 11:56:53;;;;;;;26.10;16.30;;;;;;;-1.11;90.38;98303.93;103855;1310;68652;-76
2021/12/08 11:59:19;;;;;;;31.00;18.10;;;;;;;-1.12;90.41;98303.08;102710;1317;72377;-77
2021/12/08 12:01:48;;;;;;;30.60;17.90;;;;;;;-1.09;90.70;98300.40;102395;1310;62302;-75
2021/12/08 12:04:14;;;;;;;28.60;16.90;;;;;;;-1.09;90.47;98301.24;102028;1317;61618;-74
2021/12/08 12:06:41;;;;;;;27.20;18.20;;;;;;;-1.16;90.34;98301.81;102488;1317;75447;-75
2021/12/08 12:09:09;;;;;;;29.30;17.90;;;;;;;-1.22;90.41;98300.77;102050;1316;67566;-76
2021/12/08 12:11:36;;;;;;;29.20;18.30;;;;;;;-1.24;90.83;98300.32;102401;1310;73271;-75
2021/12/08 12:14:05;;;;;;;27.10;16.80;;;;;;;-1.21;90.92;98304.60;102464;1310;61364;-75